createdAt,value
2023-01-25T00:00:39.469Z,102093.53
2023-01-25T00:03:06.529Z,102090.59
2023-01-25T00:05:33.422Z,102085.66
2023-01-25T00:08:00.380Z,102099.00
2023-01-25T00:10:27.588Z,102089.34
2023-01-25T00:12:56.295Z,102093.91
2023-01-25T00:15:23.749Z,102099.13
2023-01-25T00:17:50.957Z,102104.22
2023-01-25T00:20:19.575Z,102105.06
2023-01-25T00:22:46.402Z,102104.31
2023-01-25T00:25:13.303Z,102110.19
2023-01-25T00:27:40.358Z,102106.66
2023-01-25T00:30:08.735Z,102102.22
2023-01-25T00:32:49.527Z,102109.53
2023-01-25T00:35:16.558Z,102111.09
2023-01-25T00:37:46.795Z,102105.72
2023-01-25T00:40:16.297Z,102112.53
2023-01-25T00:42:45.095Z,102100.00
2023-01-25T00:45:13.294Z,102107.75
2023-01-25T00:47:40.485Z,102107.75
2023-01-25T00:50:09.047Z,102117.41
2023-01-25T00:52:36.905Z,102113.62
2023-01-25T00:55:03.965Z,102118.91
2023-01-25T00:57:30.947Z,102124.22
2023-01-25T00:59:58.101Z,102115.41
2023-01-25T01:02:25.370Z,102122.31
2023-01-25T01:04:52.509Z,102126.53
2023-01-25T01:07:19.431Z,102125.16
2023-01-25T01:09:46.364Z,102124.94
2023-01-25T01:12:13.875Z,102122.41
2023-01-25T01:14:40.766Z,102133.00
2023-01-25T01:17:07.640Z,102120.91
2023-01-25T01:19:34.653Z,102117.34
2023-01-25T01:22:01.760Z,102116.69
2023-01-25T01:24:28.666Z,102103.81
2023-01-25T01:26:55.726Z,102116.88
2023-01-25T01:29:22.713Z,102109.34
2023-01-25T01:31:52.305Z,102113.78
2023-01-25T01:34:20.092Z,102107.16
2023-01-25T01:36:47.467Z,102108.88
2023-01-25T01:39:14.440Z,102118.97
2023-01-25T01:41:41.457Z,102115.81
2023-01-25T01:44:20.760Z,102111.50
2023-01-25T01:46:54.850Z,102105.78
2023-01-25T01:49:29.371Z,102106.19
2023-01-25T01:52:03.502Z,102112.31
2023-01-25T01:54:59.628Z,102110.69
2023-01-25T01:57:34.372Z,102111.41
2023-01-25T02:00:14.733Z,102121.00
2023-01-25T02:02:43.942Z,102115.25
2023-01-25T02:05:31.330Z,102115.25
2023-01-25T02:07:59.060Z,102120.22
2023-01-25T02:10:28.328Z,102119.00
2023-01-25T02:12:56.611Z,102116.69
2023-01-25T02:15:23.636Z,102114.56
2023-01-25T02:17:51.751Z,102118.16
2023-01-25T02:20:42.320Z,102102.34
2023-01-25T02:23:37.026Z,102106.28
2023-01-25T02:26:06.153Z,102107.87
2023-01-25T02:28:48.322Z,102107.87
2023-01-25T02:31:15.385Z,102104.16
2023-01-25T02:33:42.494Z,102116.53
2023-01-25T02:36:09.241Z,102104.37
2023-01-25T02:38:47.000Z,102107.28
2023-01-25T02:41:35.760Z,102106.66
2023-01-25T02:44:06.684Z,102104.78
2023-01-25T02:46:36.969Z,102100.84
2023-01-25T02:49:06.237Z,102104.97
2023-01-25T02:51:36.066Z,102102.91
2023-01-25T02:54:04.972Z,102106.22
2023-01-25T02:56:32.032Z,102097.87
2023-01-25T02:58:59.460Z,102086.94
2023-01-25T03:01:26.402Z,102088.09
2023-01-25T03:03:53.322Z,102081.22
2023-01-25T03:06:20.343Z,102091.97
2023-01-25T03:08:47.242Z,102093.12
2023-01-25T03:11:14.235Z,102091.25
2023-01-25T03:13:41.123Z,102093.69
2023-01-25T03:16:11.141Z,102093.78
2023-01-25T03:18:39.360Z,102097.34
2023-01-25T03:21:15.473Z,102090.09
2023-01-25T03:23:43.475Z,102091.88
2023-01-25T03:26:14.563Z,102096.84
2023-01-25T03:28:42.055Z,102092.44
2023-01-25T03:31:11.965Z,102092.19
2023-01-25T03:33:39.497Z,102090.41
2023-01-25T03:36:07.575Z,102085.84
2023-01-25T03:38:35.055Z,102087.44
2023-01-25T03:41:02.780Z,102089.34
2023-01-25T03:43:30.074Z,102093.72
2023-01-25T03:45:59.374Z,102090.03
2023-01-25T03:48:27.627Z,102089.88
2023-01-25T03:50:57.423Z,102083.66
2023-01-25T03:53:29.800Z,102063.19
2023-01-25T03:56:01.858Z,102071.91
2023-01-25T03:58:30.336Z,102080.06
2023-01-25T04:00:59.476Z,102075.88
2023-01-25T04:03:30.183Z,102082.31
2023-01-25T04:05:58.296Z,102079.69
2023-01-25T04:08:26.302Z,102081.78
2023-01-25T04:10:55.321Z,102075.50
2023-01-25T04:13:23.825Z,102083.47
2023-01-25T04:15:51.073Z,102085.25
2023-01-25T04:18:19.207Z,102078.28
2023-01-25T04:20:53.639Z,102075.25
2023-01-25T04:23:20.894Z,102062.69
2023-01-25T04:25:59.661Z,102061.25
2023-01-25T04:28:27.147Z,102074.34
2023-01-25T04:30:55.386Z,102081.19
2023-01-25T04:33:23.042Z,102078.41
2023-01-25T04:35:49.983Z,102075.09
2023-01-25T04:38:17.609Z,102079.41
2023-01-25T04:40:44.989Z,102072.47
2023-01-25T04:43:16.301Z,102066.38
2023-01-25T04:45:43.328Z,102069.94
2023-01-25T04:48:12.372Z,102074.44
2023-01-25T04:50:41.530Z,102065.94
2023-01-25T04:53:10.363Z,102062.78
2023-01-25T04:55:37.233Z,102065.31
2023-01-25T04:58:04.611Z,102069.69
2023-01-25T05:00:32.488Z,102050.41
2023-01-25T05:02:59.593Z,102061.88
2023-01-25T05:05:26.630Z,102065.56
2023-01-25T05:07:53.527Z,102063.84
2023-01-25T05:10:21.799Z,102065.84
2023-01-25T05:12:48.778Z,102064.06
2023-01-25T05:15:15.695Z,102073.91
2023-01-25T05:17:42.673Z,102076.97
2023-01-25T05:20:10.774Z,102072.03
2023-01-25T05:22:39.298Z,102081.69
2023-01-25T05:25:26.702Z,102084.31
2023-01-25T05:27:53.561Z,102085.94
2023-01-25T05:30:21.833Z,102095.91
2023-01-25T05:32:50.669Z,102082.00
2023-01-25T05:35:17.770Z,102079.72
2023-01-25T05:37:44.627Z,102083.78
2023-01-25T05:40:12.888Z,102082.97
2023-01-25T05:42:40.452Z,102086.75
2023-01-25T05:45:08.859Z,102086.91
2023-01-25T05:47:35.927Z,102091.22
2023-01-25T05:50:08.592Z,102082.25
2023-01-25T05:52:36.082Z,102078.38
2023-01-25T05:55:02.953Z,102092.47
2023-01-25T05:57:29.970Z,102091.84
2023-01-25T05:59:57.695Z,102096.59
2023-01-25T06:02:24.771Z,102085.09
2023-01-25T06:04:51.776Z,102093.19
2023-01-25T06:07:18.760Z,102099.00
2023-01-25T06:09:45.890Z,102093.19
2023-01-25T06:12:12.972Z,102095.44
2023-01-25T06:14:39.996Z,102098.47
2023-01-25T06:17:06.972Z,102106.91
2023-01-25T06:19:34.077Z,102106.28
2023-01-25T06:22:01.050Z,102102.22
2023-01-25T06:24:28.038Z,102106.56
2023-01-25T06:26:54.967Z,102111.13
2023-01-25T06:29:21.890Z,102110.94
2023-01-25T06:31:48.735Z,102121.00
2023-01-25T06:34:17.044Z,102121.91
2023-01-25T06:36:43.909Z,102112.78
2023-01-25T06:39:10.794Z,102118.03
2023-01-25T06:41:37.704Z,102115.38
2023-01-25T06:44:04.716Z,102105.47
2023-01-25T06:46:34.383Z,102113.22
2023-01-25T06:49:01.372Z,102095.44
2023-01-25T06:51:29.347Z,102124.97
2023-01-25T06:53:56.288Z,102129.44
2023-01-25T06:56:23.626Z,102130.34
2023-01-25T06:58:50.826Z,102120.56
2023-01-25T07:01:21.098Z,102109.78
2023-01-25T07:03:59.027Z,102122.25
2023-01-25T07:06:31.277Z,102130.88
2023-01-25T07:09:04.081Z,102120.56
2023-01-25T07:11:31.390Z,102127.19
2023-01-25T07:13:58.672Z,102115.38
2023-01-25T07:16:25.599Z,102115.50
2023-01-25T07:18:52.869Z,102098.94
2023-01-25T07:21:22.806Z,102120.12
2023-01-25T07:23:51.243Z,102119.62
2023-01-25T07:26:25.762Z,102125.75
2023-01-25T07:28:53.682Z,102136.88
2023-01-25T07:31:21.412Z,102129.00
2023-01-25T07:33:49.764Z,102122.88
2023-01-25T07:36:17.184Z,102120.12
2023-01-25T07:38:44.334Z,102126.75
2023-01-25T07:41:11.382Z,102116.97
2023-01-25T07:43:38.385Z,102123.25
2023-01-25T07:46:13.790Z,102120.81
2023-01-25T07:48:45.464Z,102114.41
2023-01-25T07:51:12.705Z,102117.81
2023-01-25T07:53:41.164Z,102114.09
2023-01-25T07:56:09.783Z,102117.87
2023-01-25T07:58:37.349Z,102114.94
2023-01-25T08:01:13.078Z,102100.78
2023-01-25T08:03:40.119Z,102108.88
2023-01-25T08:06:08.120Z,102112.19
2023-01-25T08:08:38.879Z,102102.44
2023-01-25T08:11:18.390Z,102107.22
2023-01-25T08:13:46.894Z,102112.13
2023-01-25T08:16:15.314Z,102110.09
2023-01-25T08:18:43.188Z,102112.31
2023-01-25T08:21:10.277Z,102105.56
2023-01-25T08:23:37.328Z,102106.62
2023-01-25T08:26:08.180Z,102109.94
2023-01-25T08:28:38.741Z,102112.06
2023-01-25T08:31:06.566Z,102115.25
2023-01-25T08:33:33.543Z,102103.97
2023-01-25T08:36:00.892Z,102104.97
2023-01-25T08:38:27.766Z,102101.69
2023-01-25T08:40:54.855Z,102106.41
2023-01-25T08:43:21.845Z,102109.94
2023-01-25T08:45:57.014Z,102108.63
2023-01-25T08:48:24.150Z,102097.38
2023-01-25T08:50:51.432Z,102095.81
2023-01-25T08:53:18.779Z,102098.47
2023-01-25T08:55:45.761Z,102092.28
2023-01-25T08:58:16.187Z,102086.59
2023-01-25T09:00:44.245Z,102087.22
2023-01-25T09:03:12.030Z,102091.19
2023-01-25T09:05:40.031Z,102084.97
2023-01-25T09:08:08.884Z,102090.09
2023-01-25T09:10:36.082Z,102083.00
2023-01-25T09:13:03.062Z,102084.16
2023-01-25T09:15:29.917Z,102080.19
2023-01-25T09:17:57.451Z,102088.22
2023-01-25T09:20:24.616Z,102085.03
2023-01-25T09:22:51.944Z,102088.63
2023-01-25T09:25:18.789Z,102090.16
2023-01-25T09:27:50.092Z,102093.22
2023-01-25T09:30:19.116Z,102083.78
2023-01-25T09:32:50.675Z,102092.72
2023-01-25T09:35:17.987Z,102074.13
2023-01-25T09:37:45.005Z,102088.59
2023-01-25T09:40:23.729Z,102084.13
2023-01-25T09:42:58.766Z,102080.59
2023-01-25T09:45:36.565Z,102070.72
2023-01-25T09:48:18.374Z,102066.78
2023-01-25T09:51:07.395Z,102071.41
2023-01-25T09:53:41.163Z,102066.53
2023-01-25T09:56:27.476Z,102066.19
2023-01-25T09:58:59.298Z,102058.13
2023-01-25T10:01:51.134Z,102054.13
2023-01-25T10:04:21.608Z,102050.81
2023-01-25T10:07:11.406Z,102042.00
2023-01-25T10:09:54.121Z,102034.63
2023-01-25T10:12:24.114Z,102037.44
2023-01-25T10:14:52.216Z,102034.81
2023-01-25T10:17:40.480Z,102022.47
2023-01-25T10:20:39.710Z,102027.19
2023-01-25T10:23:18.924Z,102022.47
2023-01-25T10:25:51.703Z,102029.72
2023-01-25T10:28:37.903Z,102024.97
2023-01-25T10:31:20.018Z,102023.37
2023-01-25T10:33:48.920Z,102022.06
2023-01-25T10:36:24.352Z,102020.63
2023-01-25T10:38:57.506Z,102013.22
2023-01-25T10:41:25.032Z,102013.94
2023-01-25T10:44:11.867Z,102009.84
2023-01-25T10:46:41.670Z,102002.25
2023-01-25T10:50:07.428Z,102001.69
2023-01-25T10:52:37.841Z,102001.47
2023-01-25T10:55:15.664Z,101996.25
2023-01-25T10:57:44.831Z,101978.87
2023-01-25T11:00:23.155Z,101976.13
2023-01-25T11:02:50.077Z,101968.59
2023-01-25T11:05:19.678Z,101974.22
2023-01-25T11:07:47.219Z,101965.94
2023-01-25T11:10:36.337Z,101960.94
2023-01-25T11:13:15.547Z,101951.97
2023-01-25T11:15:45.951Z,101959.44
2023-01-25T11:18:29.493Z,101943.38
2023-01-25T11:21:22.230Z,101941.75
2023-01-25T11:24:07.023Z,101941.47
2023-01-25T11:26:37.622Z,101932.47
2023-01-25T11:29:15.361Z,101920.66
2023-01-25T11:35:27.653Z,101916.81
2023-01-25T11:38:16.607Z,101906.72
2023-01-25T11:40:57.817Z,101897.41
2023-01-25T11:43:33.340Z,101885.03
2023-01-25T11:47:08.206Z,101881.03
2023-01-25T11:50:03.975Z,101874.78
2023-01-25T11:52:53.426Z,101868.34
2023-01-25T11:55:31.302Z,101862.06
2023-01-25T11:58:22.732Z,101849.97
2023-01-25T12:07:40.893Z,101844.09
2023-01-25T12:10:36.768Z,101842.22
2023-01-25T12:13:06.246Z,101838.81
2023-01-25T12:16:05.288Z,101840.13
2023-01-25T12:19:04.431Z,101840.66
2023-01-25T12:21:54.198Z,101835.69
2023-01-25T12:24:34.982Z,101831.16
2023-01-25T12:27:11.160Z,101829.22
2023-01-25T12:29:48.667Z,101823.47
2023-01-25T12:32:28.518Z,101814.62
2023-01-25T12:35:37.115Z,101816.87
2023-01-25T12:38:10.470Z,101820.06
2023-01-25T12:40:58.541Z,101813.19
2023-01-25T12:43:34.876Z,101814.47
2023-01-25T12:46:10.266Z,101808.31
2023-01-25T12:48:43.350Z,101799.13
2023-01-25T12:51:11.039Z,101791.12
2023-01-25T12:53:41.736Z,101785.91
2023-01-25T12:56:13.693Z,101788.81
2023-01-25T12:59:13.723Z,101789.63
2023-01-25T13:01:40.624Z,101787.75
2023-01-25T13:04:20.325Z,101781.44
2023-01-25T13:07:06.104Z,101775.66
2023-01-25T13:09:59.754Z,101773.25
2023-01-25T13:12:27.576Z,101774.53
2023-01-25T13:14:54.859Z,101773.69
2023-01-25T13:17:40.057Z,101759.66
2023-01-25T13:20:41.370Z,101762.44
2023-01-25T13:23:26.994Z,101760.84
2023-01-25T13:26:22.495Z,101768.31
2023-01-25T13:28:58.233Z,101761.97
2023-01-25T13:31:51.515Z,101743.59
2023-01-25T13:34:40.404Z,101753.44
2023-01-25T13:37:23.143Z,101756.78
2023-01-25T13:39:54.676Z,101754.06
2023-01-25T13:42:36.390Z,101753.03
2023-01-25T13:45:14.553Z,101754.00
2023-01-25T13:47:58.620Z,101754.06
2023-01-25T13:50:29.384Z,101723.66
2023-01-25T13:53:19.030Z,101754.16
2023-01-25T13:55:49.074Z,101755.63
2023-01-25T13:58:20.407Z,101748.81
2023-01-25T14:00:55.146Z,101745.13
2023-01-25T14:03:29.226Z,101736.25
2023-01-25T14:05:59.344Z,101719.72
2023-01-25T14:08:28.226Z,101738.63
2023-01-25T14:10:57.012Z,101724.53
2023-01-25T14:13:24.773Z,101731.44
2023-01-25T14:16:04.522Z,101717.13
2023-01-25T14:18:38.279Z,101726.75
2023-01-25T14:21:25.471Z,101738.31
2023-01-25T14:23:52.796Z,101736.97
2023-01-25T14:26:23.492Z,101732.47
2023-01-25T14:29:01.207Z,101725.59
2023-01-25T14:31:35.351Z,101738.53
2023-01-25T14:34:04.308Z,101727.91
2023-01-25T14:36:34.492Z,101737.63
2023-01-25T14:39:04.457Z,101738.50
2023-01-25T14:41:59.194Z,101732.13
2023-01-25T14:44:29.057Z,101738.31
2023-01-25T14:47:33.302Z,101729.44
2023-01-25T14:50:29.130Z,101731.09
2023-01-25T14:52:57.960Z,101726.78
2023-01-25T14:55:26.191Z,101730.25
2023-01-25T14:57:58.616Z,101731.09
2023-01-25T15:00:32.125Z,101716.94
2023-01-25T15:03:05.391Z,101722.22
2023-01-25T15:05:35.140Z,101718.56
2023-01-25T15:08:07.775Z,101710.47
2023-01-25T15:10:36.950Z,101717.59
2023-01-25T15:13:14.912Z,101713.19
2023-01-25T15:15:54.190Z,101713.94
2023-01-25T15:19:00.209Z,101708.72
2023-01-25T15:21:28.855Z,101712.06
2023-01-25T15:23:58.200Z,101709.25
2023-01-25T15:26:30.126Z,101706.72
2023-01-25T15:28:59.832Z,101705.75
2023-01-25T15:31:30.169Z,101706.59
2023-01-25T15:33:57.960Z,101702.22
2023-01-25T15:36:24.824Z,101704.66
2023-01-25T15:38:52.116Z,101697.59
2023-01-25T15:41:19.218Z,101702.09
2023-01-25T15:43:46.802Z,101707.38
2023-01-25T15:46:26.681Z,101713.47
2023-01-25T15:48:54.198Z,101716.13
2023-01-25T15:51:22.408Z,101691.37
2023-01-25T15:53:49.721Z,101698.53
2023-01-25T15:56:20.475Z,101699.25
2023-01-25T15:58:52.108Z,101701.75
2023-01-25T16:01:19.964Z,101700.91
2023-01-25T16:03:47.437Z,101707.84
2023-01-25T16:06:42.021Z,101701.72
2023-01-25T16:09:20.670Z,101702.38
2023-01-25T16:11:51.477Z,101695.47
2023-01-25T16:14:19.128Z,101696.38
2023-01-25T16:16:49.910Z,101693.69
2023-01-25T16:19:19.894Z,101696.31
2023-01-25T16:21:47.578Z,101693.63
2023-01-25T16:24:16.088Z,101678.59
2023-01-25T16:26:52.971Z,101685.78
2023-01-25T16:29:23.111Z,101693.56
2023-01-25T16:31:52.395Z,101683.00
2023-01-25T16:34:22.438Z,101689.06
2023-01-25T16:36:50.785Z,101685.63
2023-01-25T16:39:20.912Z,101673.03
2023-01-25T16:41:49.414Z,101690.69
2023-01-25T16:44:18.444Z,101683.75
2023-01-25T16:46:50.799Z,101689.91
2023-01-25T16:49:21.814Z,101691.41
2023-01-25T16:51:50.553Z,101685.38
2023-01-25T16:54:20.090Z,101681.81
2023-01-25T16:56:51.043Z,101689.69
2023-01-25T16:59:20.673Z,101685.41
2023-01-25T17:01:48.683Z,101678.44
2023-01-25T17:04:17.732Z,101679.28
2023-01-25T17:06:49.833Z,101677.59
2023-01-25T17:09:24.907Z,101659.19
2023-01-25T17:11:54.285Z,101665.41
2023-01-25T17:14:22.566Z,101665.31
2023-01-25T17:16:52.147Z,101660.94
2023-01-25T17:19:21.700Z,101666.97
2023-01-25T17:21:49.390Z,101665.94
2023-01-25T17:24:21.401Z,101664.09
2023-01-25T17:26:50.942Z,101662.25
2023-01-25T17:29:21.807Z,101655.31
2023-01-25T17:31:49.854Z,101659.59
2023-01-25T17:34:22.345Z,101656.97
2023-01-25T17:36:52.933Z,101650.75
2023-01-25T17:39:21.644Z,101652.47
2023-01-25T17:41:51.566Z,101643.41
2023-01-25T17:44:27.782Z,101644.22
2023-01-25T17:46:55.885Z,101638.16
2023-01-25T17:49:25.118Z,101646.91
2023-01-25T17:51:57.459Z,101631.94
2023-01-25T17:54:25.724Z,101625.88
2023-01-25T17:56:55.606Z,101632.09
2023-01-25T17:59:24.087Z,101627.69
2023-01-25T18:01:52.815Z,101625.91
2023-01-25T18:07:05.894Z,101632.88
2023-01-25T18:09:36.251Z,101632.88
2023-01-25T18:12:07.514Z,101568.69
2023-01-25T18:14:35.838Z,101631.94
2023-01-25T18:17:06.187Z,101617.75
2023-01-25T18:19:35.783Z,101634.56
2023-01-25T18:22:05.397Z,101624.16
2023-01-25T18:24:41.795Z,101629.16
2023-01-25T18:27:22.814Z,101617.31
2023-01-25T18:30:24.175Z,101609.53
2023-01-25T18:33:02.715Z,101614.94
2023-01-25T18:35:36.315Z,101513.53
2023-01-25T18:38:05.433Z,101608.84
2023-01-25T18:40:36.975Z,101529.75
2023-01-25T18:43:05.878Z,101577.06
2023-01-25T18:45:38.933Z,101601.97
2023-01-25T18:48:07.858Z,101593.28
2023-01-25T18:50:43.079Z,101586.25
2023-01-25T18:53:12.783Z,101589.59
2023-01-25T18:55:43.044Z,101502.25
2023-01-25T18:58:13.222Z,101587.78
2023-01-25T19:00:44.432Z,101586.72
2023-01-25T19:03:15.315Z,101580.75
2023-01-25T19:05:44.386Z,101578.19
2023-01-25T19:08:21.785Z,101581.88
2023-01-25T19:10:52.784Z,101573.75
2023-01-25T19:13:24.273Z,101566.75
2023-01-25T19:16:04.282Z,101564.84
2023-01-25T19:18:36.670Z,101555.06
2023-01-25T19:21:11.751Z,101556.81
2023-01-25T19:23:41.272Z,101541.00
2023-01-25T19:26:14.920Z,101538.37
2023-01-25T19:28:44.428Z,101522.53
2023-01-25T19:31:24.994Z,101536.69
2023-01-25T19:34:03.809Z,101544.84
2023-01-25T19:36:39.585Z,101544.91
2023-01-25T19:39:19.140Z,101539.75
2023-01-25T19:42:02.270Z,101533.50
2023-01-25T19:44:42.478Z,101536.22
2023-01-25T19:47:19.617Z,101543.22
2023-01-25T19:49:51.061Z,101402.66
2023-01-25T19:52:24.924Z,101449.91
2023-01-25T19:54:58.062Z,101539.88
2023-01-25T19:57:26.879Z,101534.50
2023-01-25T19:59:56.507Z,101521.03
2023-01-25T20:02:27.153Z,101532.63
2023-01-25T20:04:57.198Z,101527.41
2023-01-25T20:07:27.973Z,101499.78
2023-01-25T20:09:58.406Z,101544.97
2023-01-25T20:12:26.833Z,101529.16
2023-01-25T20:14:57.171Z,101521.28
2023-01-25T20:17:30.027Z,101525.41
2023-01-25T20:20:07.805Z,101520.31
2023-01-25T20:22:40.100Z,101523.81
2023-01-25T20:25:10.990Z,101501.87
2023-01-25T20:27:39.675Z,101513.34
2023-01-25T20:30:14.487Z,101503.56
2023-01-25T20:32:44.636Z,101511.59
2023-01-25T20:35:13.372Z,101506.00
2023-01-25T20:37:41.975Z,101508.69
2023-01-25T20:40:13.308Z,101499.09
2023-01-25T20:42:45.138Z,101495.66
2023-01-25T20:45:22.958Z,101495.59
2023-01-25T20:47:52.748Z,101494.72
2023-01-25T20:50:29.818Z,101416.66
2023-01-25T20:52:59.708Z,101371.41
2023-01-25T20:55:29.261Z,101485.28
2023-01-25T20:58:01.680Z,101430.06
2023-01-25T21:00:31.796Z,101484.28
2023-01-25T21:03:11.321Z,101389.25
2023-01-25T21:05:40.298Z,101473.78
2023-01-25T21:08:09.726Z,101374.09
2023-01-25T21:10:41.300Z,101472.94
2023-01-25T21:13:10.441Z,101464.94
2023-01-25T21:15:41.262Z,101461.56
2023-01-25T21:18:10.391Z,101455.91
2023-01-25T21:20:38.820Z,101465.59
2023-01-25T21:23:08.009Z,101460.37
2023-01-25T21:25:39.567Z,101458.81
2023-01-25T21:28:08.707Z,101450.91
2023-01-25T21:30:38.733Z,101403.00
2023-01-25T21:33:09.423Z,101448.34
2023-01-25T21:35:38.221Z,101450.87
2023-01-25T21:38:10.172Z,101450.00
2023-01-25T21:40:40.131Z,101449.12
2023-01-25T21:43:08.047Z,101444.81
2023-01-25T21:45:57.686Z,101446.44
2023-01-25T21:48:43.817Z,101442.66
2023-01-25T21:51:31.494Z,101447.03
2023-01-25T21:53:59.482Z,101440.16
2023-01-25T21:56:26.599Z,101370.34
2023-01-25T21:58:53.722Z,101434.81
2023-01-25T22:01:22.557Z,101319.06
2023-01-25T22:03:51.093Z,101432.88
2023-01-25T22:06:18.808Z,101426.84
2023-01-25T22:08:47.259Z,101420.84
2023-01-25T22:11:15.243Z,101424.34
2023-01-25T22:13:42.620Z,101420.88
2023-01-25T22:16:11.723Z,101415.63
2023-01-25T22:18:41.794Z,101415.59
2023-01-25T22:21:16.820Z,101411.25
2023-01-25T22:23:44.741Z,101411.19
2023-01-25T22:26:19.247Z,101411.25
2023-01-25T22:28:51.415Z,101410.47
2023-01-25T22:31:25.389Z,101402.66
2023-01-25T22:33:54.454Z,101313.62
2023-01-25T22:36:23.527Z,101398.22
2023-01-25T22:38:53.601Z,101400.78
2023-01-25T22:41:25.281Z,101400.72
2023-01-25T22:43:53.479Z,101396.41
2023-01-25T22:46:24.422Z,101391.16
2023-01-25T22:48:51.717Z,101342.03
2023-01-25T22:51:23.984Z,101281.00
2023-01-25T22:53:52.937Z,101377.88
2023-01-25T22:56:23.731Z,101387.56
2023-01-25T22:58:51.543Z,101381.41
2023-01-25T23:01:21.914Z,101388.47
2023-01-25T23:03:49.697Z,101369.88
2023-01-25T23:06:20.124Z,101374.31
2023-01-25T23:08:47.978Z,101364.78
2023-01-25T23:11:18.061Z,101357.88
2023-01-25T23:14:05.826Z,101361.41
2023-01-25T23:16:34.785Z,101287.81
2023-01-25T23:19:02.723Z,101360.69
2023-01-25T23:21:30.488Z,101323.31
2023-01-25T23:24:05.105Z,101352.81
2023-01-25T23:26:38.088Z,101347.56
2023-01-25T23:29:09.505Z,101349.19
2023-01-25T23:31:37.342Z,101352.59
2023-01-25T23:34:06.960Z,101345.47
2023-01-25T23:36:42.277Z,101343.66
2023-01-25T23:39:15.409Z,101334.81
2023-01-25T23:41:42.400Z,101269.19
2023-01-25T23:44:10.228Z,101343.00
2023-01-25T23:46:37.610Z,101325.41
2023-01-25T23:49:05.731Z,101269.47
2023-01-25T23:51:32.733Z,101322.59
2023-01-25T23:54:00.665Z,101201.94
2023-01-25T23:56:28.492Z,101319.19
2023-01-25T23:58:55.548Z,101307.84
